Welcome to Northern Hawkes Bay. New Zealand.
PWS Header
      nz Flag



Hit Counter


W3C Valid W3C Valid logo


    Wairoa

Select any of the Stations below to visit their websites.










Historic Data from Weather Underground
Select the location of interest below. Wairoa is the default. Please have patience, this Data is slow to load in.
Northern Hawkes Bay Historical Data
Daily Summary for September 7, 2017 Units:  Metric    English   Both
« Previous Day
Next Day »
Daily Weekly Monthly Yearly Custom
  High: Low: Average:
Temperature: 19.2 °C 10.9 °C 15.1 °C
Dew Point: 8.4 °C 2.6 °C 6.2 °C
Humidity: 68% 42% 56%
Wind Speed: 29.4km/h 0.0km/h 10.5km/h
Wind Gust: 51.5km/h - -
Wind- - NW
Pressure: 1003.6 hPa 996.2 hPa -
Precipitation: 0.0 mm    
Historical Graphs
 
 
Tabular Data for September 7, 2017
Time Temperature Dew Point Pressure Wind Wind Speed Wind Gust Humidity Rainfall Rate (Hourly) solar
00:01 13.6 °C 7.8 °C 1003.6 hPa Calm   18.3 km/h 68% 0.0 mm 0 W/m2
00:06 13.6 °C 7.8 °C 1003.6 hPa North 1.1 km/h 18.3 km/h 68% 0.0 mm 0 W/m2
00:11 13.9 °C 8.1 °C 1003.6 hPa NNW 7.2 km/h 13.4 km/h 68% 0.0 mm 0 W/m2
00:16 14.4 °C 8.1 °C 1003.3 hPa NNW 7.2 km/h 27.0 km/h 66% 0.0 mm 0 W/m2
00:21 15.4 °C 8.4 °C 1003.6 hPa NW 9.7 km/h 27.0 km/h 63% 0.0 mm 0 W/m2
00:26 15.6 °C 7.9 °C 1003.3 hPa NNW 9.7 km/h 30.6 km/h 60% 0.0 mm 0 W/m2
00:31 15.7 °C 7.7 °C 1003.3 hPa NNW 21.9 km/h 30.6 km/h 59% 0.0 mm 0 W/m2
00:36 16.1 °C 7.3 °C 1003.3 hPa NNW 11.1 km/h 31.7 km/h 56% 0.0 mm 0 W/m2
00:41 15.6 °C 7.6 °C 1003.3 hPa NNW 6.1 km/h 31.7 km/h 59% 0.0 mm 0 W/m2
00:46 15.5 °C 7.8 °C 1002.9 hPa North 6.1 km/h 21.9 km/h 60% 0.0 mm 0 W/m2
00:51 15.3 °C 7.6 °C 1002.9 hPa North 9.7 km/h 23.3 km/h 60% 0.0 mm 0 W/m2
00:56 15.2 °C 7.5 °C 1002.9 hPa North 9.7 km/h 23.3 km/h 60% 0.0 mm 0 W/m2
01:01 15.2 °C 7.5 °C 1002.9 hPa North 5.0 km/h 21.9 km/h 60% 0.0 mm 0 W/m2
01:06 15.6 °C 7.9 °C 1002.9 hPa North 7.2 km/h 21.9 km/h 60% 0.0 mm 0 W/m2
01:11 15.2 °C 7.5 °C 1002.6 hPa North 8.7 km/h 20.9 km/h 60% 0.0 mm 0 W/m2
01:16 15.2 °C 7.5 °C 1002.6 hPa North 11.1 km/h 18.3 km/h 60% 0.0 mm 0 W/m2
01:21 15.3 °C 7.6 °C 1002.6 hPa NNW 13.4 km/h 19.5 km/h 60% 0.0 mm 0 W/m2
01:26 15.1 °C 7.4 °C 1002.6 hPa North 7.2 km/h 19.5 km/h 60% 0.0 mm 0 W/m2
01:31 15.3 °C 7.6 °C 1002.3 hPa NNW 13.4 km/h 25.6 km/h 60% 0.0 mm 0 W/m2
01:37 15.5 °C 7.6 °C 1002.3 hPa NNW 9.7 km/h 25.6 km/h 59% 0.0 mm 0 W/m2
01:42 15.7 °C 7.4 °C 1002.3 hPa NNW 9.7 km/h 24.5 km/h 58% 0.0 mm 0 W/m2
01:47 15.6 °C 7.4 °C 1001.9 hPa NNW 13.4 km/h 28.0 km/h 58% 0.0 mm 0 W/m2
01:52 15.5 °C 7.3 °C 1001.9 hPa NNW 8.7 km/h 28.0 km/h 58% 0.0 mm 0 W/m2
01:57 15.4 °C 7.2 °C 1001.9 hPa NW 12.2 km/h 24.5 km/h 58% 0.0 mm 0 W/m2
02:02 15.4 °C 7.2 °C 1001.9 hPa NNW 13.4 km/h 28.0 km/h 58% 0.0 mm 0 W/m2
02:07 15.4 °C 7.2 °C 1001.9 hPa NW 12.2 km/h 33.1 km/h 58% 0.0 mm 0 W/m2
02:23 15.2 °C 7.5 °C 1001.6 hPa NNW 5.0 km/h 24.5 km/h 60% 0.0 mm 0 W/m2
02:28 15.1 °C 7.4 °C 1001.6 hPa NNW 9.7 km/h 24.5 km/h 60% 0.0 mm 0 W/m2
02:33 15.3 °C 7.3 °C 1001.2 hPa NNW 12.2 km/h 24.5 km/h 59% 0.0 mm 0 W/m2
02:38 15.2 °C 7.2 °C 1001.2 hPa NNW 18.3 km/h 29.4 km/h 59% 0.0 mm 0 W/m2
02:43 15.4 °C 7.4 °C 1001.2 hPa NNW 7.2 km/h 29.4 km/h 59% 0.0 mm 0 W/m2
02:48 15.5 °C 7.6 °C 1001.2 hPa NNW 19.5 km/h 33.1 km/h 59% 0.0 mm 0 W/m2
02:53 15.4 °C 7.4 °C 1000.9 hPa North 9.7 km/h 33.1 km/h 59% 0.0 mm 0 W/m2
02:58 15.1 °C 7.2 °C 1000.9 hPa North 8.7 km/h 31.7 km/h 59% 0.0 mm 0 W/m2
03:03 15.2 °C 7.5 °C 1000.9 hPa NNW 13.4 km/h 23.3 km/h 60% 0.0 mm 0 W/m2
03:08 15.1 °C 7.4 °C 1000.6 hPa NNW 9.7 km/h 23.3 km/h 60% 0.0 mm 0 W/m2
03:13 15.3 °C 7.3 °C 1000.9 hPa NNW 17.2 km/h 34.3 km/h 59% 0.0 mm 0 W/m2
03:19 15.4 °C 7.2 °C 1000.6 hPa NNW 15.8 km/h 34.3 km/h 58% 0.0 mm 0 W/m2
03:24 15.5 °C 7.3 °C 1000.6 hPa NNW 12.2 km/h 31.7 km/h 58% 0.0 mm 0 W/m2
03:29 15.5 °C 7.0 °C 1000.6 hPa NNW 7.2 km/h 31.7 km/h 57% 0.0 mm 0 W/m2
03:34 15.1 °C 6.7 °C 1000.6 hPa North 11.1 km/h 28.0 km/h 57% 0.0 mm 0 W/m2
03:39 15.1 °C 6.9 °C 1000.6 hPa NNW 19.5 km/h 28.0 km/h 58% 0.0 mm 0 W/m2
03:44 15.2 °C 6.7 °C 1000.6 hPa North 9.7 km/h 28.0 km/h 57% 0.0 mm 0 W/m2
03:49 15.2 °C 6.7 °C 1000.6 hPa North 11.1 km/h 28.0 km/h 57% 0.0 mm 0 W/m2
03:54 15.4 °C 6.9 °C 1000.6 hPa NNW 12.2 km/h 25.6 km/h 57% 0.0 mm 0 W/m2
03:59 15.3 °C 7.1 °C 1000.2 hPa NNW 12.2 km/h 24.5 km/h 58% 0.0 mm 0 W/m2
04:04 15.3 °C 7.1 °C 1000.2 hPa North 7.2 km/h 19.5 km/h 58% 0.0 mm 0 W/m2
04:09 15.2 °C 7.0 °C 1000.2 hPa North 7.2 km/h 20.9 km/h 58% 0.0 mm 0 W/m2
04:14 14.9 °C 7.2 °C 1000.2 hPa North 9.7 km/h 20.9 km/h 60% 0.0 mm 0 W/m2
04:20 15.0 °C 7.1 °C 1000.2 hPa NNW 6.1 km/h 19.5 km/h 59% 0.0 mm 0 W/m2
04:26 14.7 °C 7.0 °C 1000.2 hPa NNW 8.7 km/h 23.3 km/h 60% 0.0 mm 0 W/m2
04:32 14.9 °C 7.4 °C 1000.2 hPa NNW 6.1 km/h 23.3 km/h 61% 0.0 mm 0 W/m2
04:37 14.9 °C 7.2 °C 1000.2 hPa NNW 9.7 km/h 18.3 km/h 60% 0.0 mm 0 W/m2
04:42 14.7 °C 7.0 °C 999.9 hPa North 3.5 km/h 18.3 km/h 60% 0.0 mm 0 W/m2
04:47 14.7 °C 6.8 °C 999.9 hPa North 11.1 km/h 21.9 km/h 59% 0.0 mm 0 W/m2
04:52 15.3 °C 7.1 °C 999.9 hPa North 9.7 km/h 21.9 km/h 58% 0.0 mm 0 W/m2
04:57 15.3 °C 7.1 °C 999.9 hPa North 11.1 km/h 21.9 km/h 58% 0.0 mm 0 W/m2
05:02 15.2 °C 7.0 °C 999.9 hPa North 11.1 km/h 20.9 km/h 58% 0.0 mm 0 W/m2
05:07 15.3 °C 7.1 °C 999.9 hPa NNW 11.1 km/h 20.9 km/h 58% 0.0 mm 0 W/m2
05:12 15.2 °C 7.0 °C 999.5 hPa NNW 6.1 km/h 20.9 km/h 58% 0.0 mm 0 W/m2
05:17 15.0 °C 7.1 °C 999.2 hPa NNW 7.2 km/h 20.9 km/h 59% 0.0 mm 0 W/m2
05:22 15.0 °C 7.1 °C 999.5 hPa NNW 15.8 km/h 23.3 km/h 59% 0.0 mm 0 W/m2
05:27 15.0 °C 7.1 °C 999.5 hPa NNW 8.7 km/h 23.3 km/h 59% 0.0 mm 0 W/m2
05:32 15.0 °C 7.1 °C 999.5 hPa NNW 9.7 km/h 23.3 km/h 59% 0.0 mm 0 W/m2
05:37 14.9 °C 7.4 °C 999.5 hPa NNW 3.5 km/h 23.3 km/h 61% 0.0 mm 0 W/m2
05:42 14.7 °C 7.5 °C 999.5 hPa NNW 6.1 km/h 15.8 km/h 62% 0.0 mm 0 W/m2
05:47 14.6 °C 7.9 °C 999.9 hPa NNW 5.0 km/h 13.4 km/h 64% 0.0 mm 0 W/m2
05:52 14.6 °C 7.9 °C 999.5 hPa NW 6.1 km/h 11.1 km/h 64% 0.0 mm 0 W/m2
05:57 14.4 °C 7.7 °C 999.9 hPa NNW 5.0 km/h 11.1 km/h 64% 0.0 mm 0 W/m2
06:02 14.4 °C 7.9 °C 999.5 hPa NNW 6.1 km/h 9.7 km/h 65% 0.0 mm 0 W/m2
06:07 14.2 °C 7.7 °C 999.9 hPa NNW 5.0 km/h 9.7 km/h 65% 0.0 mm 0 W/m2
06:12 14.3 °C 7.8 °C 999.9 hPa NW 6.1 km/h 12.2 km/h 65% 0.0 mm 0 W/m2
06:17 14.5 °C 7.8 °C 999.9 hPa NW 5.0 km/h 14.8 km/h 64% 0.0 mm 0 W/m2
06:22 14.9 °C 8.2 °C 999.9 hPa NW 7.2 km/h 14.8 km/h 64% 0.0 mm 0 W/m2
06:27 14.4 °C 7.9 °C 999.9 hPa NW 3.5 km/h 12.2 km/h 65% 0.0 mm 0 W/m2
06:32 14.2 °C 7.7 °C 999.9 hPa NW 3.5 km/h 12.2 km/h 65% 0.0 mm 4 W/m2
06:37 14.0 °C 7.8 °C 999.5 hPa NNW 1.1 km/h 8.7 km/h 66% 0.0 mm 10 W/m2
06:42 13.8 °C 7.8 °C 999.9 hPa NNW 3.5 km/h 6.1 km/h 67% 0.0 mm 20 W/m2
06:47 14.3 °C 8.1 °C 999.9 hPa NW 3.5 km/h 8.7 km/h 66% 0.0 mm 24 W/m2
06:52 14.2 °C 7.9 °C 999.9 hPa NNW 6.1 km/h 9.7 km/h 66% 0.0 mm 28 W/m2
06:57 14.6 °C 8.1 °C 1000.2 hPa NNW 6.1 km/h 13.4 km/h 65% 0.0 mm 29 W/m2
07:02 14.8 °C 8.1 °C 1000.2 hPa NNW 6.1 km/h 13.4 km/h 64% 0.0 mm 31 W/m2
07:07 14.9 °C 8.2 °C 999.9 hPa North 6.1 km/h 17.2 km/h 64% 0.0 mm 41 W/m2
07:12 14.9 °C 8.2 °C 999.9 hPa NNW 11.1 km/h 27.0 km/h 64% 0.0 mm 55 W/m2
07:17 15.1 °C 8.1 °C 1000.2 hPa NNW 8.7 km/h 27.0 km/h 63% 0.0 mm 58 W/m2
07:22 15.1 °C 8.1 °C 1000.2 hPa NNW 11.1 km/h 23.3 km/h 63% 0.0 mm 47 W/m2
07:27 15.1 °C 8.1 °C 1000.2 hPa NNW 9.7 km/h 25.6 km/h 63% 0.0 mm 62 W/m2
07:32 15.0 °C 8.0 °C 1000.2 hPa NNW 12.2 km/h 25.6 km/h 63% 0.0 mm 144 W/m2
07:37 15.0 °C 8.0 °C 1000.2 hPa NNW 11.1 km/h 24.5 km/h 63% 0.0 mm 33 W/m2
07:42 14.4 °C 7.9 °C 1000.2 hPa North 12.2 km/h 24.5 km/h 65% 0.0 mm 47 W/m2
07:47 14.9 °C 8.4 °C 1000.6 hPa North 11.1 km/h 24.5 km/h 65% 0.0 mm 148 W/m2
07:52 15.3 °C 8.3 °C 1000.2 hPa North 9.7 km/h 20.9 km/h 63% 0.0 mm 59 W/m2
07:57 15.3 °C 8.3 °C 1000.2 hPa North 18.3 km/h 25.6 km/h 63% 0.0 mm 93 W/m2
08:02 15.4 °C 7.9 °C 1000.6 hPa NNW 3.5 km/h 25.6 km/h 61% 0.0 mm 74 W/m2
08:07 15.7 °C 8.4 °C 1000.6 hPa North 5.0 km/h 25.6 km/h 62% 0.0 mm 52 W/m2
08:12 15.5 °C 8.0 °C 1000.6 hPa North 3.5 km/h 20.9 km/h 61% 0.0 mm 75 W/m2
08:17 15.2 °C 7.5 °C 1000.2 hPa NNW 7.2 km/h 19.5 km/h 60% 0.0 mm 55 W/m2
08:22 15.2 °C 7.5 °C 1000.2 hPa NNW 7.2 km/h 19.5 km/h 60% 0.0 mm 59 W/m2
08:27 15.0 °C 7.6 °C 1000.2 hPa North 7.2 km/h 15.8 km/h 61% 0.0 mm 72 W/m2
08:32 15.2 °C 7.5 °C 1000.2 hPa NNW 5.0 km/h 15.8 km/h 60% 0.0 mm 182 W/m2
08:37 15.6 °C 7.9 °C 999.9 hPa NNW 3.5 km/h 12.2 km/h 60% 0.0 mm 268 W/m2
08:42 15.8 °C 7.6 °C 1000.2 hPa NNW 5.0 km/h 12.2 km/h 58% 0.0 mm 62 W/m2
08:47 15.6 °C 6.6 °C 1000.2 hPa NNW 8.7 km/h 29.4 km/h 55% 0.0 mm 280 W/m2
08:52 16.3 °C 7.0 °C 1000.6 hPa NW 9.7 km/h 29.4 km/h 54% 0.0 mm 297 W/m2
08:57 16.6 °C 7.0 °C 1000.2 hPa NW 8.7 km/h 24.5 km/h 53% 0.0 mm 221 W/m2
09:02 16.9 °C 7.0 °C 1000.2 hPa NNW 7.2 km/h 24.5 km/h 52% 0.0 mm 106 W/m2
09:07 16.5 °C 6.6 °C 1000.2 hPa NNW 13.4 km/h 21.9 km/h 52% 0.0 mm 326 W/m2
09:12 16.6 °C 6.7 °C 1000.2 hPa NW 9.7 km/h 24.5 km/h 52% 0.0 mm 319 W/m2
09:17 16.9 °C 6.1 °C 1000.2 hPa NW 14.8 km/h 34.3 km/h 49% 0.0 mm 98 W/m2
09:22 17.0 °C 5.6 °C 1000.2 hPa NW 12.2 km/h 34.3 km/h 47% 0.0 mm 151 W/m2
09:27 16.9 °C 6.4 °C 1000.6 hPa NW 7.2 km/h 25.6 km/h 50% 0.0 mm 336 W/m2
09:32 17.1 °C 5.7 °C 1000.6 hPa NW 12.2 km/h 27.0 km/h 47% 0.0 mm 217 W/m2
09:37 16.6 °C 5.8 °C 1000.6 hPa NW 12.2 km/h 27.0 km/h 49% 0.0 mm 373 W/m2
09:42 17.0 °C 6.2 °C 1000.6 hPa NNW 12.2 km/h 24.5 km/h 49% 0.0 mm 337 W/m2
09:47 17.4 °C 6.0 °C 1000.6 hPa NW 12.2 km/h 35.6 km/h 47% 0.0 mm 151 W/m2
09:52 17.5 °C 5.8 °C 1000.2 hPa NW 14.8 km/h 35.6 km/h 46% 0.0 mm 95 W/m2
09:57 17.8 °C 6.3 °C 1000.2 hPa NW 12.2 km/h 30.6 km/h 47% 0.0 mm 89 W/m2
10:02 17.6 °C 5.2 °C 1000.2 hPa NW 13.4 km/h 39.3 km/h 44% 0.0 mm 76 W/m2
10:07 17.7 °C 6.3 °C 1000.2 hPa NW 14.8 km/h 39.3 km/h 47% 0.0 mm 74 W/m2
10:12 17.8 °C 6.1 °C 999.9 hPa NNW 23.3 km/h 31.7 km/h 46% 0.0 mm 76 W/m2
10:17 17.8 °C 5.7 °C 999.9 hPa NNW 13.4 km/h 39.3 km/h 45% 0.0 mm 99 W/m2
10:22 18.1 °C 6.0 °C 999.9 hPa NNW 19.5 km/h 39.3 km/h 45% 0.0 mm 93 W/m2
10:27 18.4 °C 6.6 °C 999.9 hPa NW 21.9 km/h 39.3 km/h 46% 0.0 mm 112 W/m2
10:32 18.4 °C 6.3 °C 999.9 hPa NW 24.5 km/h 37.8 km/h 45% 0.0 mm 92 W/m2
10:37 18.2 °C 6.1 °C 999.9 hPa NW 15.8 km/h 37.8 km/h 45% 0.0 mm 213 W/m2
10:42 18.3 °C 6.5 °C 999.9 hPa NW 21.9 km/h 36.7 km/h 46% 0.0 mm 369 W/m2
10:47 18.0 °C 6.2 °C 999.9 hPa WNW 21.9 km/h 43.9 km/h 46% 0.0 mm 287 W/m2
10:52 17.9 °C 5.8 °C 999.9 hPa WNW 13.4 km/h 43.9 km/h 45% 0.0 mm 444 W/m2
10:57 17.4 °C 5.3 °C 1000.2 hPa NW 12.2 km/h 30.6 km/h 45% 0.0 mm 100 W/m2
11:02 16.7 °C 5.7 °C 999.5 hPa NW 9.7 km/h 37.8 km/h 48% 0.0 mm 77 W/m2
11:07 16.5 °C 6.1 °C 999.5 hPa WNW 13.4 km/h 37.8 km/h 50% 0.0 mm 117 W/m2
11:12 16.7 °C 6.8 °C 999.5 hPa NW 14.8 km/h 29.4 km/h 52% 0.0 mm 431 W/m2
11:17 17.2 °C 6.7 °C 999.5 hPa NW 13.4 km/h 25.6 km/h 50% 0.0 mm 126 W/m2
11:22 17.2 °C 6.4 °C 999.5 hPa NW 12.2 km/h 25.6 km/h 49% 0.0 mm 500 W/m2
11:27 17.5 °C 6.7 °C 999.2 hPa NW 6.1 km/h 25.6 km/h 49% 0.0 mm 210 W/m2
11:32 17.4 °C 6.6 °C 999.2 hPa NW 9.7 km/h 25.6 km/h 49% 0.0 mm 498 W/m2
11:37 18.1 °C 6.6 °C 999.2 hPa NW 14.8 km/h 34.3 km/h 47% 0.0 mm 537 W/m2
11:42 18.2 °C 6.4 °C 998.9 hPa NW 23.3 km/h 34.3 km/h 46% 0.0 mm 253 W/m2
11:47 17.8 °C 5.4 °C 998.9 hPa NNW 14.8 km/h 45.4 km/h 44% 0.0 mm 113 W/m2
11:52 17.4 °C 5.3 °C 998.5 hPa NNW 13.4 km/h 45.4 km/h 45% 0.0 mm 101 W/m2
11:57 17.5 °C 5.4 °C 998.5 hPa NW 15.8 km/h 37.8 km/h 45% 0.0 mm 439 W/m2
12:02 18.1 °C 6.3 °C 998.5 hPa NNW 11.1 km/h 31.7 km/h 46% 0.0 mm 136 W/m2
12:07 18.1 °C 6.0 °C 998.5 hPa NW 23.3 km/h 31.7 km/h 45% 0.0 mm 252 W/m2
12:12 18.0 °C 5.9 °C 998.5 hPa NW 15.8 km/h 31.7 km/h 45% 0.0 mm 103 W/m2
12:17 18.1 °C 5.7 °C 998.2 hPa NW 14.8 km/h 40.4 km/h 44% 0.0 mm 447 W/m2
12:22 18.5 °C 6.0 °C 998.2 hPa NW 17.2 km/h 40.4 km/h 44% 0.0 mm 453 W/m2
12:27 18.8 °C 6.3 °C 997.9 hPa NW 12.2 km/h 27.0 km/h 44% 0.0 mm 458 W/m2
12:32 19.0 °C 6.5 °C 997.9 hPa NW 13.4 km/h 24.5 km/h 44% 0.0 mm 457 W/m2
12:37 19.2 °C 6.7 °C 997.9 hPa NW 9.7 km/h 24.5 km/h 44% 0.0 mm 463 W/m2
12:42 18.8 °C 6.6 °C 997.9 hPa WNW 12.2 km/h 21.9 km/h 45% 0.0 mm 485 W/m2
12:47 18.2 °C 6.4 °C 997.9 hPa WNW 9.7 km/h 21.9 km/h 46% 0.0 mm 570 W/m2
12:52 18.0 °C 6.8 °C 998.2 hPa NW 13.4 km/h 24.5 km/h 48% 0.0 mm 178 W/m2
12:57 17.3 °C 6.8 °C 998.5 hPa NW 29.4 km/h 51.5 km/h 50% 0.0 mm 192 W/m2
13:02 15.9 °C 6.6 °C 998.5 hPa NW 27.0 km/h 51.5 km/h 54% 0.0 mm 120 W/m2
13:07 15.7 °C 7.4 °C 998.5 hPa NW 20.9 km/h 51.5 km/h 58% 0.0 mm 349 W/m2
13:12 16.2 °C 6.6 °C 998.2 hPa NW 18.3 km/h 45.4 km/h 53% 0.0 mm 358 W/m2
13:17 16.7 °C 6.8 °C 998.2 hPa NW 20.9 km/h 42.8 km/h 52% 0.0 mm 315 W/m2
13:22 16.7 °C 5.9 °C 997.9 hPa NW 24.5 km/h 35.6 km/h 49% 0.0 mm 329 W/m2
13:27 16.7 °C 5.9 °C 997.9 hPa NNW 17.2 km/h 35.6 km/h 49% 0.0 mm 260 W/m2
13:32 17.0 °C 5.9 °C 997.9 hPa NW 11.1 km/h 34.3 km/h 48% 0.0 mm 282 W/m2
13:37 17.5 °C 6.1 °C 997.5 hPa NW 24.5 km/h 34.3 km/h 47% 0.0 mm 277 W/m2
13:54 17.5 °C 6.1 °C 997.2 hPa NW 12.2 km/h 40.4 km/h 47% 0.0 mm 351 W/m2
13:59 17.6 °C 5.8 °C 997.2 hPa NW 19.5 km/h 40.4 km/h 46% 0.0 mm 318 W/m2
14:04 17.9 °C 7.1 °C 997.2 hPa NW 15.8 km/h 35.6 km/h 49% 0.0 mm 338 W/m2
14:09 18.2 °C 7.0 °C 997.2 hPa NW 14.8 km/h 27.0 km/h 48% 0.0 mm 343 W/m2
14:14 18.2 °C 7.0 °C 997.2 hPa NW 17.2 km/h 31.7 km/h 48% 0.0 mm 219 W/m2
14:19 18.1 °C 6.3 °C 997.2 hPa NW 9.7 km/h 31.7 km/h 46% 0.0 mm 81 W/m2
14:24 18.0 °C 6.2 °C 997.2 hPa NW 17.2 km/h 31.7 km/h 46% 0.0 mm 68 W/m2
14:29 18.1 °C 6.0 °C 996.8 hPa NW 17.2 km/h 35.6 km/h 45% 0.0 mm 61 W/m2
14:34 18.0 °C 6.2 °C 996.8 hPa NW 20.9 km/h 35.6 km/h 46% 0.0 mm 61 W/m2
14:39 18.0 °C 5.9 °C 996.8 hPa NW 23.3 km/h 50.0 km/h 45% 0.0 mm 61 W/m2
14:44 17.9 °C 5.5 °C 996.8 hPa NW 19.5 km/h 50.0 km/h 44% 0.0 mm 70 W/m2
14:49 18.1 °C 6.3 °C 996.8 hPa NW 20.9 km/h 39.3 km/h 46% 0.0 mm 75 W/m2
14:54 18.4 °C 6.6 °C 996.8 hPa WNW 15.8 km/h 33.1 km/h 46% 0.0 mm 78 W/m2
14:59 18.6 °C 6.8 °C 996.8 hPa WNW 24.5 km/h 29.4 km/h 46% 0.0 mm 194 W/m2
15:04 18.4 °C 6.3 °C 996.8 hPa NW 12.2 km/h 33.1 km/h 45% 0.0 mm 273 W/m2
15:09 18.0 °C 5.6 °C 996.5 hPa NW 19.5 km/h 39.3 km/h 44% 0.0 mm 77 W/m2
15:20 17.9 °C 5.8 °C 996.5 hPa NW 13.4 km/h 42.8 km/h 45% 0.0 mm 95 W/m2
15:23 17.7 °C 5.6 °C 996.5 hPa NW 11.1 km/h 42.8 km/h 45% 0.0 mm 294 W/m2
15:26 17.4 °C 5.1 °C 996.5 hPa NW 14.8 km/h 31.7 km/h 44% 0.0 mm 193 W/m2
15:30 17.6 °C 5.2 °C 996.5 hPa NW 13.4 km/h 31.7 km/h 44% 0.0 mm 102 W/m2
15:35 17.3 °C 5.3 °C 996.5 hPa NW 13.4 km/h 31.7 km/h 45% 0.0 mm 244 W/m2
15:40 17.9 °C 6.4 °C 996.2 hPa NW 11.1 km/h 24.5 km/h 47% 0.0 mm 260 W/m2
15:46 18.2 °C 6.7 °C 996.2 hPa NNW 12.2 km/h 20.9 km/h 47% 0.0 mm 219 W/m2
15:51 18.1 °C 5.7 °C 996.5 hPa NW 11.1 km/h 35.6 km/h 44% 0.0 mm 243 W/m2
15:59 18.6 °C 6.4 °C 996.5 hPa NNW 9.7 km/h 24.5 km/h 45% 0.0 mm 206 W/m2
16:04 18.3 °C 5.8 °C 996.8 hPa NW 21.9 km/h 31.7 km/h 44% 0.0 mm 177 W/m2
16:09 17.9 °C 4.8 °C 996.8 hPa NW 18.3 km/h 31.7 km/h 42% 0.0 mm 149 W/m2
16:14 17.6 °C 4.9 °C 996.5 hPa NNW 14.8 km/h 31.7 km/h 43% 0.0 mm 145 W/m2
16:19 17.6 °C 5.2 °C 996.5 hPa NNW 12.2 km/h 30.6 km/h 44% 0.0 mm 128 W/m2
16:24 17.6 °C 5.6 °C 996.8 hPa NW 11.1 km/h 30.6 km/h 45% 0.0 mm 117 W/m2
16:29 17.0 °C 4.7 °C 997.2 hPa NW 23.3 km/h 37.8 km/h 44% 0.0 mm 102 W/m2
16:34 16.7 °C 5.1 °C 996.8 hPa NW 17.2 km/h 37.8 km/h 46% 0.0 mm 93 W/m2
16:39 16.5 °C 4.8 °C 997.2 hPa NNW 13.4 km/h 37.8 km/h 46% 0.0 mm 85 W/m2
16:44 16.4 °C 5.4 °C 997.2 hPa NNW 15.8 km/h 37.8 km/h 48% 0.0 mm 70 W/m2
16:49 16.4 °C 5.4 °C 997.2 hPa NNW 9.7 km/h 28.0 km/h 48% 0.0 mm 66 W/m2
16:54 16.4 °C 5.4 °C 997.2 hPa NNW 12.2 km/h 27.0 km/h 48% 0.0 mm 60 W/m2
16:59 16.3 °C 5.3 °C 997.2 hPa NNW 15.8 km/h 23.3 km/h 48% 0.0 mm 48 W/m2
17:04 16.2 °C 4.9 °C 997.2 hPa NNW 7.2 km/h 24.5 km/h 47% 0.0 mm 40 W/m2
17:09 16.3 °C 5.9 °C 997.5 hPa NNW 7.2 km/h 24.5 km/h 50% 0.0 mm 35 W/m2
17:14 15.9 °C 5.5 °C 997.2 hPa NW 7.2 km/h 18.3 km/h 50% 0.0 mm 22 W/m2
17:19 15.3 °C 5.8 °C 997.2 hPa North 9.7 km/h 15.8 km/h 53% 0.0 mm 19 W/m2
17:24 15.0 °C 5.8 °C 997.5 hPa North 5.0 km/h 17.2 km/h 54% 0.0 mm 23 W/m2
17:29 15.2 °C 5.7 °C 997.2 hPa NNW 11.1 km/h 18.3 km/h 53% 0.0 mm 17 W/m2
17:34 15.0 °C 4.7 °C 997.5 hPa NNW 11.1 km/h 20.9 km/h 50% 0.0 mm 13 W/m2
17:39 14.8 °C 5.1 °C 997.5 hPa NNW 20.9 km/h 28.0 km/h 52% 0.0 mm 6 W/m2
17:44 14.6 °C 4.8 °C 997.5 hPa NW 3.5 km/h 28.0 km/h 52% 0.0 mm 3 W/m2
17:49 14.3 °C 5.1 °C 997.5 hPa NW 5.0 km/h 28.0 km/h 54% 0.0 mm 1 W/m2
17:54 14.0 °C 4.8 °C 997.5 hPa NW 7.2 km/h 17.2 km/h 54% 0.0 mm 0 W/m2
17:59 13.9 °C 5.3 °C 997.5 hPa NW 2.6 km/h 15.8 km/h 56% 0.0 mm 0 W/m2
18:04 13.7 °C 5.1 °C 997.5 hPa NW 2.6 km/h 12.2 km/h 56% 0.0 mm 0 W/m2
18:09 13.6 °C 5.0 °C 997.5 hPa NW 1.1 km/h 12.2 km/h 56% 0.0 mm 0 W/m2
18:14 13.4 °C 5.1 °C 997.5 hPa Calm   11.1 km/h 57% 0.0 mm 0 W/m2
18:20 13.2 °C 4.9 °C 997.9 hPa NNW 1.1 km/h 5.0 km/h 57% 0.0 mm 0 W/m2
18:25 13.1 °C 5.0 °C 997.9 hPa Calm   5.0 km/h 58% 0.0 mm 0 W/m2
18:30 13.0 °C 4.9 °C 997.9 hPa Calm   5.0 km/h 58% 0.0 mm 0 W/m2
18:35 12.9 °C 5.3 °C 997.9 hPa North 2.6 km/h 5.0 km/h 60% 0.0 mm 0 W/m2
18:40 12.7 °C 5.4 °C 998.2 hPa Calm   5.0 km/h 61% 0.0 mm 0 W/m2
18:45 12.7 °C 5.4 °C 998.2 hPa NNW 5.0 km/h 8.7 km/h 61% 0.0 mm 0 W/m2
18:50 12.8 °C 5.4 °C 998.5 hPa NNW 3.5 km/h 9.7 km/h 61% 0.0 mm 0 W/m2
18:55 12.8 °C 5.4 °C 998.5 hPa NW 1.1 km/h 9.7 km/h 61% 0.0 mm 0 W/m2
19:00 12.8 °C 5.7 °C 998.5 hPa NNW 3.5 km/h 13.4 km/h 62% 0.0 mm 0 W/m2
19:05 12.8 °C 5.7 °C 998.5 hPa NW 6.1 km/h 13.4 km/h 62% 0.0 mm 0 W/m2
19:10 12.9 °C 5.8 °C 998.9 hPa NW 3.5 km/h 12.2 km/h 62% 0.0 mm 0 W/m2
19:15 12.9 °C 5.8 °C 998.9 hPa NW 2.6 km/h 12.2 km/h 62% 0.0 mm 0 W/m2
19:16 12.9 °C 5.8 °C 998.9 hPa NW 1.1 km/h 9.7 km/h 62% 0.0 mm 0 W/m2
19:21 12.9 °C 5.8 °C 998.9 hPa Calm   7.2 km/h 62% 0.0 mm 0 W/m2
19:26 12.8 °C 5.9 °C 998.9 hPa NNW 12.2 km/h 19.5 km/h 63% 0.0 mm 0 W/m2
19:31 13.0 °C 5.9 °C 998.9 hPa NNW 9.7 km/h 20.9 km/h 62% 0.0 mm 0 W/m2
19:36 12.8 °C 5.7 °C 998.9 hPa NNW 9.7 km/h 20.9 km/h 62% 0.0 mm 0 W/m2
19:41 12.8 °C 5.9 °C 998.5 hPa NNW 7.2 km/h 17.2 km/h 63% 0.0 mm 0 W/m2
19:46 12.7 °C 5.8 °C 998.5 hPa NNW 7.2 km/h 15.8 km/h 63% 0.0 mm 0 W/m2
19:51 12.6 °C 5.7 °C 998.2 hPa NW 5.0 km/h 14.8 km/h 63% 0.0 mm 0 W/m2
19:56 12.6 °C 5.7 °C 998.5 hPa NW 6.1 km/h 14.8 km/h 63% 0.0 mm 0 W/m2
20:01 12.5 °C 5.7 °C 998.5 hPa NW 3.5 km/h 14.8 km/h 63% 0.0 mm 0 W/m2
20:06 12.3 °C 5.4 °C 998.5 hPa NW 1.1 km/h 14.8 km/h 63% 0.0 mm 0 W/m2
20:11 12.2 °C 5.4 °C 998.5 hPa NNW 8.7 km/h 11.1 km/h 63% 0.0 mm 0 W/m2
20:16 12.1 °C 5.3 °C 998.5 hPa Calm   11.1 km/h 63% 0.0 mm 0 W/m2
20:21 12.0 °C 5.2 °C 998.5 hPa Calm   11.1 km/h 63% 0.0 mm 0 W/m2
20:27 11.8 °C 5.4 °C 998.5 hPa Calm   3.5 km/h 65% 0.0 mm 0 W/m2
20:32 11.6 °C 5.2 °C 998.5 hPa Calm   1.1 km/h 65% 0.0 mm 0 W/m2
20:37 11.5 °C 5.4 °C 998.5 hPa NW 1.1 km/h 5.0 km/h 66% 0.0 mm 0 W/m2
20:42 11.4 °C 5.3 °C 998.5 hPa Calm   6.1 km/h 66% 0.0 mm 0 W/m2
20:47 11.3 °C 5.2 °C 998.5 hPa NNW 1.1 km/h 6.1 km/h 66% 0.0 mm 0 W/m2
20:52 11.2 °C 5.1 °C 998.9 hPa Calm   3.5 km/h 66% 0.0 mm 0 W/m2
20:57 11.0 °C 4.9 °C 998.9 hPa Calm   3.5 km/h 66% 0.0 mm 0 W/m2
21:02 11.0 °C 4.9 °C 999.2 hPa Calm   2.6 km/h 66% 0.0 mm 0 W/m2
21:07 11.0 °C 5.1 °C 999.2 hPa WNW 3.5 km/h 9.7 km/h 67% 0.0 mm 0 W/m2
21:12 11.0 °C 4.9 °C 999.2 hPa WNW 6.1 km/h 11.1 km/h 66% 0.0 mm 0 W/m2
21:17 11.3 °C 4.7 °C 999.2 hPa NW 7.2 km/h 11.1 km/h 64% 0.0 mm 0 W/m2
21:22 11.5 °C 4.7 °C 999.2 hPa NW 8.7 km/h 17.2 km/h 63% 0.0 mm 0 W/m2
21:27 11.7 °C 4.7 °C 999.2 hPa NW 12.2 km/h 23.3 km/h 62% 0.0 mm 0 W/m2
21:32 11.7 °C 4.7 °C 998.5 hPa NW 11.1 km/h 23.3 km/h 62% 0.0 mm 0 W/m2
21:37 11.4 °C 4.6 °C 998.5 hPa NW 11.1 km/h 19.5 km/h 63% 0.0 mm 0 W/m2
21:42 11.3 °C 4.7 °C 998.9 hPa NW 8.7 km/h 17.2 km/h 64% 0.0 mm 0 W/m2
21:47 11.3 °C 4.5 °C 998.9 hPa NNW 11.1 km/h 24.5 km/h 63% 0.0 mm 0 W/m2
21:52 11.4 °C 4.6 °C 998.5 hPa NNW 9.7 km/h 24.5 km/h 63% 0.0 mm 0 W/m2
21:57 11.4 °C 4.4 °C 998.9 hPa North 11.1 km/h 24.5 km/h 62% 0.0 mm 0 W/m2
22:02 11.3 °C 4.3 °C 998.9 hPa North 13.4 km/h 21.9 km/h 62% 0.0 mm 0 W/m2
22:07 11.4 °C 4.4 °C 998.9 hPa NNW 9.7 km/h 21.9 km/h 62% 0.0 mm 0 W/m2
22:12 11.3 °C 4.3 °C 998.9 hPa NNW 11.1 km/h 21.9 km/h 62% 0.0 mm 0 W/m2
22:17 11.5 °C 4.2 °C 998.9 hPa NW 6.1 km/h 23.3 km/h 61% 0.0 mm 0 W/m2
22:22 11.3 °C 4.1 °C 999.2 hPa NW 13.4 km/h 27.0 km/h 61% 0.0 mm 0 W/m2
22:27 11.4 °C 4.2 °C 999.2 hPa NNW 8.7 km/h 27.0 km/h 61% 0.0 mm 0 W/m2
22:32 11.3 °C 4.3 °C 998.9 hPa NW 15.8 km/h 27.0 km/h 62% 0.0 mm 0 W/m2
22:37 11.3 °C 4.1 °C 998.9 hPa NW 15.8 km/h 25.6 km/h 61% 0.0 mm 0 W/m2
22:42 11.4 °C 3.9 °C 998.9 hPa NNW 20.9 km/h 35.6 km/h 60% 0.0 mm 0 W/m2
22:47 11.5 °C 3.8 °C 998.9 hPa NNW 20.9 km/h 35.6 km/h 59% 0.0 mm 0 W/m2
22:52 11.3 °C 3.6 °C 998.9 hPa North 18.3 km/h 31.7 km/h 59% 0.0 mm 0 W/m2
22:57 11.3 °C 3.6 °C 998.5 hPa NNW 13.4 km/h 31.7 km/h 59% 0.0 mm 0 W/m2
23:02 11.2 °C 3.5 °C 998.9 hPa NNW 7.2 km/h 27.0 km/h 59% 0.0 mm 0 W/m2
23:07 11.1 °C 3.6 °C 998.9 hPa NNW 12.2 km/h 24.5 km/h 60% 0.0 mm 0 W/m2
23:12 10.9 °C 3.4 °C 998.5 hPa NW 6.1 km/h 20.9 km/h 60% 0.0 mm 0 W/m2
23:17 10.9 °C 3.4 °C 998.9 hPa NNW 9.7 km/h 20.9 km/h 60% 0.0 mm 0 W/m2
23:22 11.1 °C 3.2 °C 998.9 hPa North 9.7 km/h 20.9 km/h 58% 0.0 mm 0 W/m2
23:27 11.1 °C 2.9 °C 998.9 hPa NNW 11.1 km/h 20.9 km/h 57% 0.0 mm 0 W/m2
23:33 11.3 °C 2.6 °C 998.9 hPa NW 7.2 km/h 27.0 km/h 55% 0.0 mm 0 W/m2
23:38 11.1 °C 2.7 °C 998.9 hPa NW 9.7 km/h 27.0 km/h 56% 0.0 mm 0 W/m2
23:43 11.1 °C 2.7 °C 998.9 hPa NW 15.8 km/h 20.9 km/h 56% 0.0 mm 0 W/m2
23:48 11.3 °C 2.8 °C 998.9 hPa NW 15.8 km/h 31.7 km/h 56% 0.0 mm 0 W/m2
23:53 11.2 °C 2.7 °C 998.9 hPa NW 12.2 km/h 31.7 km/h 56% 0.0 mm 0 W/m2
23:58 11.1 °C 2.9 °C 998.9 hPa NNW 14.8 km/h 23.3 km/h 57% 0.0 mm 0 W/m2
Northern Hawkes Bay. New Zealand Historic Data
Compliments of Weather Underground - 2.25 mb